Time;durP1;ratioP1;P1;durP2;ratioP2;P2;SDS_P1;SDS_P2;PMS_P1;PMS_P2;Temp;Humidity;BMP_temperature;BMP_pressure;BME280_temperature;BME280_humidity;BME280_pressure;Samples;Min_cycle;Max_cycle;Signal;HPM_P1;HPM_P2
2023/07/16 00:01:57;;;;;;;1.55;1.45;;;29.80;47.20;;;;;;5151075;27;45300;-71
2023/07/16 00:04:24;;;;;;;1.50;1.40;;;29.80;47.20;;;;;;5150254;27;46376;-71
2023/07/16 00:06:51;;;;;;;2.20;1.38;;;29.70;47.20;;;;;;5150329;27;45333;-71
2023/07/16 00:09:18;;;;;;;2.33;1.80;;;29.70;47.20;;;;;;5150122;27;45259;-71
2023/07/16 00:11:45;;;;;;;1.90;1.80;;;29.70;47.20;;;;;;5150536;27;45531;-71
2023/07/16 00:14:12;;;;;;;1.38;1.27;;;29.60;47.20;;;;;;5149956;27;46286;-71
2023/07/16 00:16:40;;;;;;;2.08;1.67;;;29.60;47.20;;;;;;5150175;27;45489;-71
2023/07/16 00:19:06;;;;;;;1.73;1.50;;;29.60;47.20;;;;;;5150046;27;45326;-71
2023/07/16 00:21:33;;;;;;;1.67;1.40;;;29.60;47.30;;;;;;5150460;27;45375;-71
2023/07/16 00:24:00;;;;;;;2.25;1.60;;;29.50;47.50;;;;;;5149666;27;45395;-71
2023/07/16 00:26:27;;;;;;;1.50;1.40;;;29.50;47.20;;;;;;5149707;27;45288;-70
2023/07/16 00:28:54;;;;;;;1.42;1.33;;;29.50;47.20;;;;;;5149979;27;45295;-71
2023/07/16 00:31:21;;;;;;;1.60;1.45;;;29.40;47.20;;;;;;5150226;27;45415;-71
2023/07/16 00:33:49;;;;;;;1.65;1.55;;;29.40;47.20;;;;;;5149687;27;45536;-71
2023/07/16 00:36:16;;;;;;;1.55;1.45;;;29.40;47.80;;;;;;5149828;27;45372;-71
2023/07/16 00:38:42;;;;;;;1.45;1.35;;;29.40;47.20;;;;;;5149777;27;45248;-71
2023/07/16 00:41:09;;;;;;;1.80;1.60;;;29.30;47.20;;;;;;5149957;27;45501;-71
2023/07/16 00:43:36;;;;;;;1.80;1.50;;;29.30;47.20;;;;;;5149434;27;46368;-70
2023/07/16 00:46:03;;;;;;;1.58;1.40;;;29.30;47.30;;;;;;5148819;27;45266;-71
2023/07/16 00:48:29;;;;;;;1.30;1.20;;;29.30;47.30;;;;;;5149309;27;45367;-71
2023/07/16 00:50:58;;;;;;;1.55;1.45;;;29.20;47.20;;;;;;5149817;27;45259;-71
2023/07/16 00:53:24;;;;;;;1.40;1.30;;;29.20;47.20;;;;;;5149148;27;46426;-70
2023/07/16 00:55:51;;;;;;;5.40;1.52;;;29.20;47.30;;;;;;5149455;27;45336;-70
2023/07/16 00:58:18;;;;;;;1.45;1.35;;;29.20;47.20;;;;;;5149677;27;45261;-70
2023/07/16 01:00:45;;;;;;;1.40;1.30;;;29.10;47.20;;;;;;5149517;27;45403;-71
2023/07/16 01:03:13;;;;;;;1.40;1.30;;;29.10;47.10;;;;;;5149280;27;46393;-71
2023/07/16 01:05:46;;;;;;;1.25;1.15;;;29.10;47.20;;;;;;5149230;27;45272;-70
2023/07/16 01:08:14;;;;;;;1.30;1.20;;;29.10;47.20;;;;;;5149301;27;45352;-70
2023/07/16 01:10:41;;;;;;;1.58;1.48;;;29.00;47.30;;;;;;5149605;27;45415;-70
2023/07/16 01:13:08;;;;;;;1.40;1.30;;;29.00;47.20;;;;;;5148256;27;45245;-71
2023/07/16 01:15:35;;;;;;;1.92;1.40;;;29.00;47.30;;;;;;5149087;27;45316;-71
2023/07/16 01:18:01;;;;;;;1.52;1.38;;;29.00;47.30;;;;;;5149353;27;45294;-70
2023/07/16 01:20:28;;;;;;;1.10;1.02;;;28.90;47.20;;;;;;5149389;27;45314;-70
2023/07/16 01:23:18;;;;;;;1.30;1.20;;;28.90;47.10;;;;;;5149003;27;45310;-71
2023/07/16 01:25:56;;;;;;;1.27;1.15;;;28.90;47.10;;;;;;5148839;27;45619;-70
2023/07/16 01:28:51;;;;;;;1.77;1.67;;;28.90;47.20;;;;;;5149138;27;45323;-70
2023/07/16 01:31:21;;;;;;;1.30;1.20;;;28.80;47.20;;;;;;5134884;27;45480;-71
2023/07/16 01:33:48;;;;;;;1.20;1.20;;;28.80;47.20;;;;;;5148562;27;45297;-71
2023/07/16 01:36:14;;;;;;;1.30;1.20;;;28.80;47.40;;;;;;5148667;27;45305;-70
2023/07/16 01:38:41;;;;;;;1.25;1.15;;;28.80;47.30;;;;;;5149196;27;45287;-70
2023/07/16 01:41:08;;;;;;;1.27;1.17;;;28.70;47.20;;;;;;5149021;27;45414;-70
2023/07/16 01:43:35;;;;;;;1.55;1.45;;;28.70;47.20;;;;;;5148569;27;45324;-70
2023/07/16 01:46:01;;;;;;;1.30;1.20;;;28.70;47.20;;;;;;5148626;27;45332;-70
2023/07/16 01:48:31;;;;;;;1.67;1.40;;;28.70;47.30;;;;;;5148625;27;45294;-70
2023/07/16 01:50:58;;;;;;;1.02;1.02;;;28.70;47.20;;;;;;5148767;27;45632;-71
2023/07/16 01:53:25;;;;;;;1.25;1.15;;;28.60;47.80;;;;;;5147544;27;47285;-70
2023/07/16 01:55:52;;;;;;;1.30;1.20;;;28.60;47.20;;;;;;5148246;27;45336;-70
2023/07/16 01:58:18;;;;;;;2.10;1.42;;;28.60;47.20;;;;;;5148572;27;45185;-70
2023/07/16 02:00:45;;;;;;;1.30;1.20;;;28.60;47.10;;;;;;5148680;27;45426;-70
2023/07/16 02:03:12;;;;;;;1.17;1.08;;;28.50;47.10;;;;;;5148531;27;47673;-70
2023/07/16 02:05:40;;;;;;;1.02;1.02;;;28.50;47.20;;;;;;5148335;27;45382;-71
2023/07/16 02:08:07;;;;;;;0.98;0.90;;;28.50;47.10;;;;;;5148559;27;45331;-70
2023/07/16 02:10:34;;;;;;;1.17;1.08;;;28.50;47.10;;;;;;5148879;27;45302;-70
2023/07/16 02:13:01;;;;;;;1.00;1.00;;;28.50;47.10;;;;;;5148264;27;45529;-70
2023/07/16 02:15:28;;;;;;;1.08;1.08;;;28.40;47.10;;;;;;5147942;27;45352;-70
2023/07/16 02:17:54;;;;;;;1.50;1.08;;;28.40;47.10;;;;;;5148161;27;45314;-70
2023/07/16 02:20:22;;;;;;;1.15;1.10;;;28.40;47.20;;;;;;5148312;27;45283;-70
2023/07/16 02:22:50;;;;;;;0.85;0.85;;;28.40;47.10;;;;;;5148794;27;46643;-70
2023/07/16 02:25:17;;;;;;;1.52;1.00;;;28.40;47.20;;;;;;5151829;27;45311;-70
2023/07/16 02:27:43;;;;;;;1.10;1.00;;;28.30;47.10;;;;;;5151738;27;45287;-70
2023/07/16 02:30:11;;;;;;;0.93;0.93;;;28.30;47.10;;;;;;5152075;27;45288;-70
2023/07/16 02:32:38;;;;;;;1.20;1.10;;;28.30;47.20;;;;;;5151449;27;45246;-70
2023/07/16 02:35:05;;;;;;;1.30;1.20;;;28.30;47.20;;;;;;5151322;27;45300;-70
2023/07/16 02:37:32;;;;;;;0.95;0.95;;;28.20;47.20;;;;;;5151182;27;45278;-70
2023/07/16 02:40:00;;;;;;;1.23;1.10;;;28.20;47.10;;;;;;5151518;27;45385;-70
2023/07/16 02:42:27;;;;;;;1.17;1.08;;;28.20;47.10;;;;;;5151137;27;46699;-70
2023/07/16 02:44:54;;;;;;;1.10;1.00;;;28.20;47.10;;;;;;5151562;27;45329;-70
2023/07/16 02:47:20;;;;;;;1.35;1.02;;;28.20;47.20;;;;;;5151753;27;45418;-70
2023/07/16 02:49:47;;;;;;;0.70;0.70;;;28.10;47.00;;;;;;5151920;27;45355;-70
2023/07/16 02:52:14;;;;;;;0.90;0.90;;;28.10;47.00;;;;;;5151131;27;45217;-70
2023/07/16 02:54:41;;;;;;;0.80;0.80;;;28.10;47.10;;;;;;5151474;27;45273;-70
2023/07/16 02:57:09;;;;;;;0.80;0.80;;;28.10;47.00;;;;;;5151931;27;45274;-70
2023/07/16 02:59:37;;;;;;;1.08;1.00;;;28.10;47.10;;;;;;5151944;27;45663;-70
2023/07/16 03:02:04;;;;;;;1.45;1.10;;;28.00;47.10;;;;;;5151485;27;46508;-70
2023/07/16 03:04:31;;;;;;;1.33;0.98;;;28.00;47.00;;;;;;5151222;27;45295;-70
2023/07/16 03:06:58;;;;;;;1.33;1.00;;;28.00;47.10;;;;;;5151160;27;45320;-70
2023/07/16 03:09:25;;;;;;;1.23;0.90;;;27.90;47.10;;;;;;5151059;27;45244;-70
2023/07/16 03:11:51;;;;;;;1.27;0.90;;;27.90;47.00;;;;;;5150688;27;46407;-70
2023/07/16 03:14:20;;;;;;;0.90;0.90;;;27.90;47.00;;;;;;5150697;27;45353;-70
2023/07/16 03:16:46;;;;;;;1.92;1.00;;;27.90;47.10;;;;;;5151080;27;45176;-70
2023/07/16 03:19:13;;;;;;;1.23;0.90;;;27.80;47.00;;;;;;5151117;27;45331;-70
2023/07/16 03:21:40;;;;;;;0.90;0.90;;;27.80;47.00;;;;;;5150699;27;46725;-69
2023/07/16 03:24:07;;;;;;;0.68;0.68;;;27.80;47.00;;;;;;5150008;27;45310;-70
2023/07/16 03:26:34;;;;;;;1.20;1.10;;;27.80;47.10;;;;;;5151023;27;45247;-70
2023/07/16 03:29:00;;;;;;;1.30;0.90;;;27.80;47.10;;;;;;5150907;27;45434;-70
2023/07/16 03:31:28;;;;;;;1.02;0.93;;;27.80;47.10;;;;;;5150703;27;45334;-70
2023/07/16 03:33:55;;;;;;;0.80;0.80;;;27.70;47.00;;;;;;5150820;27;45211;-70
2023/07/16 03:36:22;;;;;;;0.85;0.85;;;27.70;47.00;;;;;;5150203;27;45366;-70
2023/07/16 03:38:49;;;;;;;0.80;0.80;;;27.70;47.00;;;;;;5151034;27;45385;-70
2023/07/16 03:41:16;;;;;;;0.90;0.90;;;27.70;47.10;;;;;;5150600;27;46351;-70
2023/07/16 03:43:42;;;;;;;0.90;0.90;;;27.60;46.90;;;;;;5150438;27;45314;-70
2023/07/16 03:46:09;;;;;;;1.05;0.75;;;27.60;46.90;;;;;;5150681;27;45160;-70
2023/07/16 03:48:37;;;;;;;0.70;0.70;;;27.60;47.00;;;;;;5150909;27;45414;-70
2023/07/16 03:51:04;;;;;;;1.00;0.90;;;27.60;46.90;;;;;;5150637;27;46423;-70
2023/07/16 03:53:31;;;;;;;1.42;0.80;;;27.60;47.00;;;;;;5150345;27;45354;-70
2023/07/16 03:55:58;;;;;;;1.42;0.80;;;27.60;47.00;;;;;;5150404;27;45280;-70
2023/07/16 03:58:25;;;;;;;0.85;0.85;;;27.50;47.00;;;;;;5150695;27;45407;-71
2023/07/16 04:00:52;;;;;;;0.82;0.82;;;27.50;47.00;;;;;;5150204;27;45288;-70
2023/07/16 04:03:24;;;;;;;1.60;1.13;;;27.50;47.00;;;;;;5150209;27;45278;-70
2023/07/16 04:05:52;;;;;;;1.77;1.00;;;27.50;47.60;;;;;;5150201;27;45280;-70
2023/07/16 04:08:18;;;;;;;0.80;0.80;;;27.40;46.90;;;;;;5150075;27;45258;-72
2023/07/16 04:10:45;;;;;;;0.80;0.80;;;27.50;47.00;;;;;;5149545;27;45381;-70
2023/07/16 04:13:12;;;;;;;1.13;0.90;;;27.40;46.90;;;;;;5150135;27;45189;-70
2023/07/16 04:15:39;;;;;;;0.70;0.70;;;27.40;46.90;;;;;;5149991;27;45245;-70
2023/07/16 04:18:06;;;;;;;0.75;0.75;;;27.40;46.90;;;;;;5150250;27;45557;-70
2023/07/16 04:20:33;;;;;;;1.15;1.00;;;27.40;46.90;;;;;;5149693;27;46739;-70
2023/07/16 04:23:01;;;;;;;1.13;0.90;;;27.40;46.90;;;;;;5149739;27;45507;-70
2023/07/16 04:25:28;;;;;;;0.60;0.60;;;27.40;46.90;;;;;;5149776;27;45299;-70
2023/07/16 04:27:55;;;;;;;1.48;0.90;;;27.40;46.90;;;;;;5149964;27;45238;-70
2023/07/16 04:30:22;;;;;;;1.08;0.90;;;27.30;46.80;;;;;;5149747;27;45253;-70
2023/07/16 04:32:49;;;;;;;0.80;0.80;;;27.30;46.90;;;;;;5149594;27;45333;-69
2023/07/16 04:35:16;;;;;;;0.95;0.80;;;27.30;46.90;;;;;;5149576;27;45327;-70
2023/07/16 04:37:42;;;;;;;1.15;0.88;;;27.30;46.90;;;;;;5149870;27;45235;-70
2023/07/16 04:40:11;;;;;;;0.68;0.68;;;27.30;46.90;;;;;;5149575;27;45275;-70
2023/07/16 04:42:38;;;;;;;0.82;0.82;;;27.30;46.90;;;;;;5149655;27;45362;-70
2023/07/16 04:45:06;;;;;;;1.05;0.70;;;27.30;46.90;;;;;;5150082;27;45408;-70
2023/07/16 04:47:32;;;;;;;0.70;0.70;;;27.20;46.80;;;;;;5146132;27;45433;-70
2023/07/16 04:49:59;;;;;;;0.82;0.82;;;27.20;46.90;;;;;;5149698;27;45260;-70
2023/07/16 04:52:26;;;;;;;1.05;0.73;;;27.20;46.90;;;;;;5149700;27;45279;-69
2023/07/16 04:54:53;;;;;;;0.68;0.68;;;27.20;46.90;;;;;;5148846;27;45401;-70
2023/07/16 04:57:21;;;;;;;0.77;0.77;;;27.20;46.90;;;;;;5149642;27;45365;-70
2023/07/16 04:59:48;;;;;;;0.80;0.80;;;27.20;46.90;;;;;;5149469;27;47382;-69
2023/07/16 05:02:16;;;;;;;1.13;0.70;;;27.20;46.90;;;;;;5149291;27;45310;-69
2023/07/16 05:04:47;;;;;;;0.80;0.80;;;27.10;46.80;;;;;;5149321;27;45400;-69
2023/07/16 05:07:14;;;;;;;0.90;0.70;;;27.10;46.80;;;;;;5149602;27;45391;-70
2023/07/16 05:09:40;;;;;;;1.00;0.73;;;27.10;46.80;;;;;;5149290;27;45248;-70
2023/07/16 05:12:08;;;;;;;0.88;0.70;;;27.10;46.80;;;;;;5149174;27;45190;-70
2023/07/16 05:14:44;;;;;;;0.98;0.90;;;27.10;46.80;;;;;;5149001;27;45431;-70
2023/07/16 05:17:11;;;;;;;1.00;0.93;;;27.10;46.80;;;;;;5149444;27;45410;-70
2023/07/16 05:19:37;;;;;;;0.82;0.80;;;27.10;46.80;;;;;;5148950;27;47717;-70
2023/07/16 05:22:04;;;;;;;0.60;0.60;;;27.10;46.80;;;;;;5148816;27;45360;-70
2023/07/16 05:24:32;;;;;;;1.98;1.00;;;27.10;46.80;;;;;;5149290;27;45303;-70
2023/07/16 05:26:59;;;;;;;0.77;0.77;;;27.00;46.80;;;;;;5149358;27;45330;-70
2023/07/16 05:29:25;;;;;;;1.08;0.80;;;27.00;46.80;;;;;;5148730;27;45461;-70
2023/07/16 05:31:54;;;;;;;0.77;0.77;;;27.00;46.90;;;;;;5148697;27;45381;-70
2023/07/16 05:34:21;;;;;;;0.80;0.80;;;26.90;46.90;;;;;;5148777;27;45268;-69
2023/07/16 05:36:47;;;;;;;0.68;0.68;;;27.00;46.90;;;;;;5149148;27;45386;-69
2023/07/16 05:39:14;;;;;;;1.02;0.90;;;27.00;46.90;;;;;;5148880;27;45237;-70
2023/07/16 05:41:41;;;;;;;0.95;0.93;;;27.00;46.90;;;;;;5148803;27;45442;-70
2023/07/16 05:44:08;;;;;;;0.52;0.52;;;26.90;46.80;;;;;;5148291;27;45273;-68
2023/07/16 05:46:35;;;;;;;0.60;0.60;;;26.90;46.90;;;;;;5148977;27;45248;-69
2023/07/16 05:49:03;;;;;;;0.60;0.60;;;26.90;46.80;;;;;;5148816;27;45263;-70
2023/07/16 05:51:30;;;;;;;0.60;0.60;;;26.90;46.80;;;;;;5149247;27;45296;-70
2023/07/16 05:53:56;;;;;;;0.70;0.70;;;26.90;46.70;;;;;;5148765;27;45412;-74
2023/07/16 05:56:23;;;;;;;0.70;0.70;;;26.90;46.70;;;;;;5148859;27;45411;-70
2023/07/16 05:58:50;;;;;;;1.25;0.60;;;26.90;46.70;;;;;;5148233;27;45306;-70
2023/07/16 06:01:17;;;;;;;0.80;0.68;;;26.90;46.70;;;;;;5148578;27;45209;-69
2023/07/16 06:03:44;;;;;;;0.85;0.85;;;26.90;46.70;;;;;;5148616;27;45283;-70
2023/07/16 06:06:12;;;;;;;0.70;0.70;;;26.90;46.70;;;;;;5148798;27;45308;-70
2023/07/16 06:08:39;;;;;;;0.73;0.55;;;26.90;47.30;;;;;;5148337;27;47583;-70
2023/07/16 06:11:06;;;;;;;0.68;0.68;;;26.90;46.60;;;;;;5148505;27;45245;-69
2023/07/16 06:13:33;;;;;;;0.50;0.50;;;26.90;46.60;;;;;;5148283;27;45313;-70
2023/07/16 06:15:59;;;;;;;1.17;0.80;;;26.90;46.60;;;;;;5148504;27;45423;-69
2023/07/16 06:18:26;;;;;;;0.60;0.60;;;26.90;46.60;;;;;;5148118;27;45438;-69
2023/07/16 06:20:55;;;;;;;0.60;0.57;;;26.90;46.60;;;;;;5148181;27;45355;-69
2023/07/16 06:23:23;;;;;;;0.65;0.65;;;26.90;46.70;;;;;;5148462;27;45241;-69
2023/07/16 06:25:54;;;;;;;1.10;0.60;;;26.80;46.60;;;;;;5148583;27;45397;-70
2023/07/16 06:28:21;;;;;;;0.70;0.70;;;26.80;46.60;;;;;;5148132;27;46368;-69
2023/07/16 06:30:48;;;;;;;0.50;0.50;;;26.80;46.60;;;;;;5147657;27;45199;-69
2023/07/16 06:33:15;;;;;;;0.77;0.77;;;26.80;46.70;;;;;;5148310;27;45317;-69
2023/07/16 06:35:44;;;;;;;0.70;0.70;;;26.80;46.60;;;;;;5148203;27;45380;-70
2023/07/16 06:38:11;;;;;;;1.45;0.80;;;26.80;46.60;;;;;;5147819;27;46524;-70
2023/07/16 06:40:39;;;;;;;0.57;0.57;;;26.80;46.60;;;;;;5148202;27;45306;-70
2023/07/16 06:43:06;;;;;;;1.08;0.80;;;26.90;46.60;;;;;;5148064;27;45350;-69
2023/07/16 06:45:33;;;;;;;0.60;0.60;;;26.90;46.60;;;;;;5148078;27;45418;-70
2023/07/16 06:48:00;;;;;;;0.85;0.85;;;26.90;46.50;;;;;;5147829;27;45251;-69
2023/07/16 06:50:26;;;;;;;0.77;0.73;;;26.90;46.50;;;;;;5147931;27;45312;-69
2023/07/16 06:52:53;;;;;;;1.00;0.82;;;26.90;46.50;;;;;;5147739;27;45286;-69
2023/07/16 06:55:20;;;;;;;0.52;0.50;;;26.90;46.40;;;;;;5148075;27;45380;-69
2023/07/16 06:57:48;;;;;;;0.63;0.63;;;26.90;46.40;;;;;;5147926;27;46369;-69
2023/07/16 07:00:15;;;;;;;1.08;0.80;;;26.90;46.40;;;;;;5144954;27;45264;-69
2023/07/16 07:02:42;;;;;;;0.55;0.55;;;26.90;46.40;;;;;;5147936;27;45315;-70
2023/07/16 07:05:10;;;;;;;1.63;0.80;;;26.90;46.50;;;;;;5148039;27;45366;-74
2023/07/16 07:07:37;;;;;;;1.58;0.82;;;26.90;46.50;;;;;;5147605;27;45343;-73
2023/07/16 07:10:04;;;;;;;1.40;0.82;;;26.90;46.60;;;;;;5148873;27;45392;-73
2023/07/16 07:12:34;;;;;;;2.00;1.20;;;26.90;46.70;;;;;;5152175;27;45331;-73
2023/07/16 07:15:03;;;;;;;1.20;1.02;;;26.90;46.80;;;;;;5151267;27;45405;-74
2023/07/16 07:17:30;;;;;;;2.30;1.08;;;26.90;46.90;;;;;;5151052;27;45356;-74
2023/07/16 07:19:56;;;;;;;1.35;0.85;;;26.90;47.00;;;;;;5150376;27;45213;-73
2023/07/16 07:22:23;;;;;;;1.77;0.88;;;26.90;47.00;;;;;;5151541;27;45316;-73
2023/07/16 07:24:50;;;;;;;2.78;1.00;;;26.90;47.10;;;;;;5151603;27;45373;-74
2023/07/16 07:27:17;;;;;;;1.52;0.80;;;26.90;47.10;;;;;;5150906;27;45360;-72
2023/07/16 07:29:46;;;;;;;1.02;0.88;;;26.90;46.90;;;;;;5150992;27;45260;-73
2023/07/16 07:32:14;;;;;;;3.20;0.95;;;26.80;46.90;;;;;;5151265;27;45242;-73
2023/07/16 07:34:41;;;;;;;2.50;1.00;;;26.90;46.80;;;;;;5151281;27;45381;-72
2023/07/16 07:37:08;;;;;;;2.30;0.90;;;26.90;46.80;;;;;;5150699;27;46384;-73
2023/07/16 07:39:35;;;;;;;2.42;0.80;;;26.90;46.80;;;;;;5150783;27;45203;-73
2023/07/16 07:42:02;;;;;;;1.92;0.88;;;26.90;46.80;;;;;;5151036;27;45142;-74
2023/07/16 07:44:29;;;;;;;1.50;0.98;;;26.90;46.90;;;;;;5151050;27;45548;-74
2023/07/16 07:46:56;;;;;;;2.60;1.17;;;26.90;47.00;;;;;;5150694;27;45424;-73
2023/07/16 07:49:24;;;;;;;1.48;1.10;;;26.90;46.90;;;;;;5150913;27;45320;-73
2023/07/16 07:51:50;;;;;;;1.75;1.10;;;26.90;46.80;;;;;;5150813;27;45228;-73
2023/07/16 07:54:17;;;;;;;1.50;1.00;;;26.90;46.80;;;;;;5152648;27;45345;-73
2023/07/16 07:56:46;;;;;;;4.50;1.20;;;26.90;47.40;;;;;;5149486;27;45404;-73
2023/07/16 07:59:13;;;;;;;2.20;0.93;;;26.90;46.80;;;;;;5150583;27;45468;-72
2023/07/16 08:01:40;;;;;;;2.38;1.30;;;26.90;46.60;;;;;;5150809;27;45270;-73
2023/07/16 08:04:07;;;;;;;1.90;1.10;;;26.80;46.10;;;;;;5150192;27;45361;-73
2023/07/16 08:06:35;;;;;;;3.40;1.10;;;26.70;46.10;;;;;;5149736;27;45304;-73
2023/07/16 08:09:02;;;;;;;2.42;0.90;;;26.70;46.20;;;;;;5150178;27;45303;-73
2023/07/16 08:11:29;;;;;;;2.05;0.90;;;26.60;46.20;;;;;;5150789;27;45365;-72
2023/07/16 08:13:56;;;;;;;1.75;1.10;;;26.60;46.70;;;;;;5149976;27;45464;-72
2023/07/16 08:16:23;;;;;;;4.72;1.33;;;26.50;46.60;;;;;;5147782;27;45409;-73
2023/07/16 08:18:50;;;;;;;2.22;1.10;;;26.50;47.10;;;;;;5144712;27;45349;-73
2023/07/16 08:21:19;;;;;;;2.38;1.20;;;26.50;46.40;;;;;;5149937;27;45511;-74
2023/07/16 08:23:48;;;;;;;1.23;0.90;;;26.50;46.40;;;;;;5147484;27;45329;-74
2023/07/16 08:26:14;;;;;;;2.60;1.13;;;26.40;46.20;;;;;;5129734;27;45502;-74
2023/07/16 08:28:41;;;;;;;3.97;1.27;;;26.40;46.60;;;;;;5125804;27;45393;-73
2023/07/16 08:31:08;;;;;;;2.67;1.00;;;26.40;46.30;;;;;;5129475;27;45332;-74
2023/07/16 08:33:35;;;;;;;2.30;1.15;;;26.40;46.00;;;;;;5129294;27;45327;-73
2023/07/16 08:36:02;;;;;;;7.32;1.42;;;26.40;46.30;;;;;;5129099;27;46722;-73
2023/07/16 08:38:28;;;;;;;5.32;1.30;;;26.40;46.20;;;;;;5128877;27;45327;-72
2023/07/16 08:40:57;;;;;;;7.60;1.25;;;26.40;46.50;;;;;;5129136;27;45370;-73
2023/07/16 08:43:24;;;;;;;3.42;1.48;;;26.50;47.00;;;;;;5129126;27;45447;-75
2023/07/16 08:45:50;;;;;;;2.47;1.30;;;26.50;46.30;;;;;;5128852;27;45523;-74
2023/07/16 08:48:17;;;;;;;4.53;1.60;;;26.60;46.10;;;;;;5128928;27;45335;-72
2023/07/16 08:50:44;;;;;;;5.03;1.75;;;26.60;46.20;;;;;;5131080;27;45412;-70
2023/07/16 08:53:11;;;;;;;3.65;2.42;;;26.70;46.40;;;;;;5150453;27;45477;-75
2023/07/16 08:55:38;;;;;;;3.17;2.53;;;26.80;46.60;;;;;;5150448;27;45484;-73
2023/07/16 08:58:06;;;;;;;3.67;2.00;;;26.90;46.10;;;;;;5150316;27;45434;-72
2023/07/16 09:00:33;;;;;;;3.17;1.70;;;27.00;45.60;;;;;;5150209;27;45241;-71
2023/07/16 09:03:00;;;;;;;9.35;1.58;;;27.10;45.80;;;;;;5149769;27;45286;-74
2023/07/16 09:05:27;;;;;;;2.97;1.00;;;27.10;45.20;;;;;;5151241;27;45437;-74
2023/07/16 09:07:53;;;;;;;1.38;1.20;;;27.10;44.50;;;;;;5151642;27;45372;-74
2023/07/16 09:10:20;;;;;;;3.65;1.23;;;27.20;44.30;;;;;;5151352;27;45356;-74
2023/07/16 09:12:47;;;;;;;4.28;1.35;;;27.20;44.30;;;;;;5151238;27;45464;-71
2023/07/16 09:15:18;;;;;;;6.43;1.80;;;27.20;44.30;;;;;;5149099;27;45324;-70
2023/07/16 09:17:48;;;;;;;6.00;2.10;;;27.30;44.50;;;;;;5149846;27;45329;-72
2023/07/16 09:20:16;;;;;;;2.55;1.77;;;27.30;44.10;;;;;;5149475;27;45247;-71
2023/07/16 09:22:42;;;;;;;2.53;1.48;;;27.40;43.70;;;;;;5149295;27;45422;-71
2023/07/16 09:25:09;;;;;;;4.15;1.40;;;27.40;43.50;;;;;;5148750;27;45308;-68
2023/07/16 09:27:36;;;;;;;3.05;1.13;;;27.40;43.20;;;;;;5142965;27;45273;-68
2023/07/16 09:30:05;;;;;;;2.15;1.20;;;27.40;43.10;;;;;;5148647;27;45202;-70
2023/07/16 09:32:36;;;;;;;5.38;1.38;;;27.40;43.50;;;;;;5141880;27;45448;-71
2023/07/16 09:35:08;;;;;;;1.35;1.20;;;27.40;43.90;;;;;;5149111;27;46597;-70
2023/07/16 09:37:35;;;;;;;3.95;1.10;;;27.40;43.90;;;;;;5148121;27;45344;-70
2023/07/16 09:40:03;;;;;;;2.45;1.05;;;27.40;43.60;;;;;;5145829;27;45482;-69
2023/07/16 09:42:29;;;;;;;3.08;1.38;;;27.30;43.70;;;;;;5149845;27;45211;-70
2023/07/16 09:44:56;;;;;;;1.77;0.93;;;27.30;43.80;;;;;;5138500;27;46405;-69
2023/07/16 09:47:23;;;;;;;2.58;1.05;;;27.20;43.40;;;;;;5148332;27;45540;-72
2023/07/16 09:49:51;;;;;;;2.42;1.13;;;27.20;43.50;;;;;;5149180;27;45316;-70
2023/07/16 09:52:20;;;;;;;1.52;1.05;;;27.20;43.10;;;;;;5149060;27;45461;-70
2023/07/16 09:54:46;;;;;;;1.92;1.08;;;27.20;42.80;;;;;;5148913;27;46611;-71
2023/07/16 09:57:13;;;;;;;5.03;1.30;;;27.10;43.00;;;;;;5148520;27;45316;-70
2023/07/16 09:59:40;;;;;;;2.33;1.17;;;27.20;42.80;;;;;;5148805;27;45369;-70
2023/07/16 10:02:08;;;;;;;2.03;1.13;;;27.10;42.10;;;;;;5148229;27;45350;-69
2023/07/16 10:04:39;;;;;;;1.88;1.10;;;27.10;42.20;;;;;;5147988;27;46661;-70
2023/07/16 10:07:21;;;;;;;4.28;1.10;;;27.10;42.10;;;;;;5147120;27;45450;-70
2023/07/16 10:09:52;;;;;;;4.13;1.23;;;27.10;42.20;;;;;;5146338;27;45294;-71
2023/07/16 10:12:20;;;;;;;2.90;1.30;;;27.20;42.30;;;;;;5149223;27;45270;-71
2023/07/16 10:14:48;;;;;;;4.18;1.10;;;27.20;42.50;;;;;;5149019;27;46340;-70
2023/07/16 10:17:15;;;;;;;2.08;0.93;;;27.20;42.70;;;;;;5148372;27;45505;-70
2023/07/16 10:19:49;;;;;;;2.55;0.90;;;27.20;42.50;;;;;;5148973;27;45154;-71
2023/07/16 10:22:18;;;;;;;2.15;1.10;;;27.20;42.60;;;;;;5149007;27;45222;-70
2023/07/16 10:24:45;;;;;;;5.15;1.30;;;27.20;42.50;;;;;;5148090;27;46711;-70
2023/07/16 10:27:14;;;;;;;2.97;1.25;;;27.20;42.50;;;;;;5148673;27;45290;-71
2023/07/16 10:29:41;;;;;;;1.67;1.02;;;27.30;43.10;;;;;;5148402;27;45454;-70
2023/07/16 10:32:08;;;;;;;2.22;1.02;;;27.20;43.00;;;;;;5148745;27;45423;-70
2023/07/16 10:34:36;;;;;;;2.85;1.48;;;27.30;42.80;;;;;;5148125;27;45443;-70
2023/07/16 10:37:03;;;;;;;4.00;1.15;;;27.30;42.70;;;;;;5147915;27;45505;-70
2023/07/16 10:39:32;;;;;;;3.00;1.63;;;27.30;42.90;;;;;;5148239;27;45318;-70
2023/07/16 10:41:58;;;;;;;2.78;1.38;;;27.30;43.00;;;;;;5148573;27;45351;-71
2023/07/16 10:44:25;;;;;;;2.72;1.30;;;27.30;43.00;;;;;;5148855;27;45270;-70
2023/07/16 10:46:54;;;;;;;2.00;1.38;;;27.30;42.70;;;;;;5151264;27;45456;-70
2023/07/16 10:49:28;;;;;;;2.38;1.20;;;27.20;42.20;;;;;;5151247;27;45139;-69
2023/07/16 10:51:55;;;;;;;2.72;1.15;;;27.30;42.60;;;;;;5151287;27;45522;-71
2023/07/16 10:54:22;;;;;;;1.38;0.90;;;27.30;43.00;;;;;;5151649;27;46374;-71
2023/07/16 10:56:51;;;;;;;3.53;1.27;;;27.30;43.20;;;;;;5151696;27;45247;-71
2023/07/16 10:59:18;;;;;;;2.60;1.23;;;27.20;43.00;;;;;;5151316;27;45448;-70
2023/07/16 11:01:45;;;;;;;2.72;1.35;;;27.20;43.10;;;;;;5152741;27;45415;-70
2023/07/16 11:04:12;;;;;;;3.05;1.20;;;27.30;43.30;;;;;;5152236;27;45499;-72
2023/07/16 11:06:38;;;;;;;4.13;1.40;;;27.30;43.30;;;;;;5151699;27;45287;-69
2023/07/16 11:09:08;;;;;;;3.00;1.10;;;27.30;43.00;;;;;;5152206;27;45276;-69
2023/07/16 11:11:35;;;;;;;2.58;1.20;;;27.30;43.00;;;;;;5151909;27;45269;-70
2023/07/16 11:14:05;;;;;;;0.77;0.77;;;27.30;43.30;;;;;;5151557;27;45377;-72
2023/07/16 11:16:35;;;;;;;3.38;1.15;;;27.20;42.80;;;;;;5151454;27;45657;-70
2023/07/16 11:19:02;;;;;;;5.53;1.30;;;27.20;43.10;;;;;;5151385;27;45318;-70
2023/07/16 11:21:29;;;;;;;2.38;1.30;;;27.30;43.10;;;;;;5152079;27;45212;-75
2023/07/16 11:23:56;;;;;;;2.33;1.15;;;27.30;43.00;;;;;;5151196;27;46351;-74
2023/07/16 11:26:24;;;;;;;3.13;1.30;;;27.40;42.90;;;;;;5151189;27;45426;-71
2023/07/16 11:28:51;;;;;;;3.17;1.20;;;27.40;42.80;;;;;;5151652;27;45341;-74
2023/07/16 11:31:19;;;;;;;2.20;1.30;;;27.40;42.70;;;;;;5150813;27;45409;-71
2023/07/16 11:33:46;;;;;;;3.00;1.30;;;27.50;43.30;;;;;;5152063;27;45381;-73
2023/07/16 11:36:13;;;;;;;4.20;1.30;;;27.50;43.00;;;;;;5155660;27;45410;-71
2023/07/16 11:38:40;;;;;;;4.82;1.10;;;27.50;42.90;;;;;;5161748;27;45271;-74
2023/07/16 11:41:07;;;;;;;2.53;1.10;;;27.50;42.50;;;;;;5157255;27;45145;-73
2023/07/16 11:43:37;;;;;;;3.35;1.27;;;27.50;42.70;;;;;;5157124;27;45210;-74
2023/07/16 11:46:03;;;;;;;2.08;1.20;;;27.50;42.70;;;;;;5150750;27;45381;-72
2023/07/16 11:48:32;;;;;;;4.13;1.52;;;27.60;42.70;;;;;;5150972;27;45430;-73
2023/07/16 11:50:58;;;;;;;3.28;1.30;;;27.60;42.60;;;;;;5150049;27;45489;-73
2023/07/16 11:53:26;;;;;;;4.18;1.40;;;27.60;42.40;;;;;;5149486;27;46708;-74
2023/07/16 11:55:53;;;;;;;1.85;1.10;;;27.70;42.20;;;;;;5149355;27;45374;-71
2023/07/16 11:58:20;;;;;;;3.80;1.35;;;27.60;42.00;;;;;;5150577;27;45418;-71
2023/07/16 12:00:46;;;;;;;2.33;1.23;;;27.60;42.40;;;;;;5152445;27;44790;-73
2023/07/16 12:03:13;;;;;;;0.95;0.88;;;27.70;42.70;;;;;;5137773;27;45802;-73
2023/07/16 12:05:41;;;;;;;3.47;1.48;;;27.80;42.80;;;;;;5150415;27;45325;-71
2023/07/16 12:08:13;;;;;;;2.40;1.30;;;27.90;42.40;;;;;;5152777;27;45510;-70
2023/07/16 12:10:40;;;;;;;2.95;1.23;;;28.00;42.50;;;;;;5149563;27;45450;-71
2023/07/16 12:13:07;;;;;;;2.67;1.40;;;28.00;42.30;;;;;;5150877;27;45482;-69
2023/07/16 12:15:34;;;;;;;3.53;1.58;;;28.10;42.20;;;;;;5148041;27;45281;-73
2023/07/16 12:18:01;;;;;;;2.90;1.27;;;28.10;42.10;;;;;;5141162;27;45425;-74
2023/07/16 12:20:28;;;;;;;3.13;1.50;;;28.20;42.20;;;;;;5150087;27;45215;-69
2023/07/16 12:22:56;;;;;;;1.58;1.27;;;28.20;42.10;;;;;;5146507;27;45259;-72
2023/07/16 12:25:23;;;;;;;2.38;1.25;;;28.20;42.10;;;;;;5149811;27;45364;-70
2023/07/16 12:27:50;;;;;;;3.13;1.23;;;28.20;42.40;;;;;;5149636;27;45303;-71
2023/07/16 12:30:17;;;;;;;2.33;1.35;;;28.30;42.10;;;;;;5137245;27;45568;-71
2023/07/16 12:32:44;;;;;;;3.45;1.50;;;28.30;42.10;;;;;;5144515;27;45420;-73
2023/07/16 12:35:10;;;;;;;4.82;1.30;;;28.30;41.70;;;;;;5150009;27;45242;-74
2023/07/16 12:37:38;;;;;;;3.65;1.17;;;28.30;41.60;;;;;;5149977;27;45449;-71
2023/07/16 12:40:07;;;;;;;2.17;1.27;;;28.30;41.50;;;;;;5151446;27;45431;-71
2023/07/16 12:42:34;;;;;;;2.47;1.35;;;28.30;41.60;;;;;;5147829;27;46429;-70
2023/07/16 12:45:02;;;;;;;2.78;1.30;;;28.30;41.70;;;;;;5145047;27;45432;-72
2023/07/16 12:47:29;;;;;;;2.80;1.30;;;28.30;41.70;;;;;;5149872;27;45370;-72
2023/07/16 12:49:56;;;;;;;2.45;1.23;;;28.40;41.40;;;;;;5150011;27;45308;-73